KAGS/AGS METAR and TAF weather

Enter ICAO airport designator
Station Type Date Time Source
KAGS METAR 2020/02/24 22:53 UTC NOAA

KAGS 242253Z 10003KT 10SM BKN007 OVC060 11/09 A2997 RMK AO2 SLP149 T01110094


Station Type Date Time Source
KAGS Decoded METAR 2020/02/24 22:53 UTC NOAA

AUGUSTA BUSH FIELD, GA, United States (KAGS) 33-22N 081-58W 44M
Feb 24, 2020 - 05:53 PM EST / 2020.02.24 2253 UTC
Wind: from the E (100 degrees) at 3 MPH (3 KT):0
Visibility: 10 mile(s):0
Sky conditions: overcast
Temperature: 52.0 F (11.1 C)
Dew Point: 48.9 F (9.4 C)
Relative Humidity: 89%
Pressure (altimeter): 29.97 in. Hg (1014 hPa)
ob: KAGS 242253Z 10003KT 10SM BKN007 OVC060 11/09 A2997 RMK AO2 SLP149 T01110094
cycle: 23

Station Type Date Time Source
KAGS TAF 2020/02/24 22:27 UTC NOAA

TAF
AMD KAGS 242225Z 2422/2518 VRB03KT 6SM -SHRA BR BKN007 BKN080
FM250100 12005KT 4SM -SHRA BR SCT008 OVC015 WS015/20040KT
FM250500 18007KT 2SM SHRA BR SCT003 OVC008 WS015/20040KT
FM251600 23009KT 6SM BR VCSH SCT008 OVC012

Example: see airport list